Terminal Aerodrome Forecast
Issued by NWS Anchorage, AK

Home | Current Version | Previous Version | Text Only | Print | Product List | Glossary On
Versions: 1 2 3 4 5 6 7 8 9 10 11 12 13 14 15 16 17 18 19 20 21 22 23 24 25 26 27 28 29 30 31 32 33 34 35 36 37 38 39 40 41 42 43 44 45 46 47 48 49
000
FTAK31 PANC 192344
TAFANC
TAF
PANC 192344Z 2000/2106 15025G35KT P6SM VCSH SCT045 BKN070
     FM200600 13012G22KT P6SM SCT070 BKN120
     FM201000 12010KT P6SM SCT060 BKN100
     FM201400 17008KT 5SM -RASN SCT020 BKN040
     FM201600 18012KT 2SM -SN BR SCT015 OVC025
     FM201900 18014G24KT P6SM SCT030 BKN060=

USA.gov is the U.S. government's official web portal to all federal, state and local government web resources and services.